createdAt,value
2022-08-26T00:00:16.615Z,24.66
2022-08-26T00:03:08.470Z,24.61
2022-08-26T00:05:42.055Z,24.55
2022-08-26T00:08:16.973Z,24.50
2022-08-26T00:10:49.117Z,24.47
2022-08-26T00:13:21.386Z,24.42
2022-08-26T00:15:53.695Z,24.38
2022-08-26T00:18:25.968Z,24.36
2022-08-26T00:20:58.578Z,24.32
2022-08-26T00:23:31.249Z,24.27
2022-08-26T00:26:05.658Z,24.19
2022-08-26T00:28:41.599Z,24.14
2022-08-26T00:31:13.879Z,24.11
2022-08-26T00:33:46.219Z,24.08
2022-08-26T00:36:20.055Z,24.04
2022-08-26T00:38:53.135Z,24.03
2022-08-26T00:41:25.304Z,24.01
2022-08-26T00:43:58.229Z,23.96
2022-08-26T00:46:36.068Z,23.92
2022-08-26T00:49:14.036Z,23.88
2022-08-26T00:51:50.796Z,23.83
2022-08-26T00:54:26.885Z,23.79
2022-08-26T00:57:02.591Z,23.72
2022-08-26T00:59:38.904Z,23.70
2022-08-26T01:02:20.292Z,23.71
2022-08-26T01:04:56.476Z,23.73
2022-08-26T01:07:31.220Z,23.75
2022-08-26T01:10:07.183Z,23.76
2022-08-26T01:12:44.333Z,23.79
2022-08-26T01:15:21.671Z,23.78
2022-08-26T01:17:54.536Z,23.76
2022-08-26T01:20:32.984Z,23.75
2022-08-26T01:23:08.668Z,23.72
2022-08-26T01:25:46.686Z,23.69
2022-08-26T01:28:23.246Z,23.68
2022-08-26T01:30:56.890Z,23.65
2022-08-26T01:33:42.456Z,23.62
2022-08-26T01:36:16.403Z,23.62
2022-08-26T01:38:48.771Z,23.60
2022-08-26T01:41:27.437Z,23.59
2022-08-26T01:44:03.343Z,23.60
2022-08-26T01:46:35.971Z,23.61
2022-08-26T01:49:10.394Z,23.61
2022-08-26T01:51:44.558Z,23.58
2022-08-26T01:54:17.257Z,23.56
2022-08-26T01:56:54.067Z,23.53
2022-08-26T01:59:26.861Z,23.52
2022-08-26T02:01:59.631Z,23.52
2022-08-26T02:04:37.863Z,23.50
2022-08-26T02:07:11.805Z,23.50
2022-08-26T02:09:45.258Z,23.48
2022-08-26T02:12:19.681Z,23.45
2022-08-26T02:14:55.008Z,23.43
2022-08-26T02:17:33.422Z,23.41
2022-08-26T02:20:13.329Z,23.38
2022-08-26T02:22:47.623Z,23.38
2022-08-26T02:25:25.919Z,23.31
2022-08-26T02:27:58.389Z,23.29
2022-08-26T02:30:32.929Z,23.27
2022-08-26T02:33:05.647Z,23.25
2022-08-26T02:35:40.749Z,23.20
2022-08-26T02:38:13.077Z,23.19
2022-08-26T02:40:45.353Z,23.16
2022-08-26T02:43:23.821Z,23.15
2022-08-26T02:46:03.821Z,23.13
2022-08-26T02:48:36.761Z,23.13
2022-08-26T02:51:09.301Z,23.12
2022-08-26T02:53:41.435Z,23.10
2022-08-26T02:56:14.806Z,23.10
2022-08-26T02:58:47.165Z,23.09
2022-08-26T03:01:28.530Z,23.07
2022-08-26T03:04:01.699Z,23.09
2022-08-26T03:06:33.927Z,23.07
2022-08-26T03:09:07.290Z,23.06
2022-08-26T03:11:40.335Z,23.05
2022-08-26T03:14:13.328Z,23.03
2022-08-26T03:16:48.571Z,23.03
2022-08-26T03:19:19.358Z,23.03
2022-08-26T03:21:52.546Z,23.02
2022-08-26T03:24:25.535Z,23.03
2022-08-26T03:26:58.391Z,23.03
2022-08-26T03:29:50.401Z,23.03
2022-08-26T03:32:22.779Z,23.02
2022-08-26T03:34:59.198Z,23.01
2022-08-26T03:37:32.182Z,23.00
2022-08-26T03:40:04.917Z,22.99
2022-08-26T03:42:39.078Z,22.97
2022-08-26T03:45:13.468Z,22.97
2022-08-26T03:47:48.505Z,22.97
2022-08-26T03:50:24.379Z,22.96
2022-08-26T03:52:58.096Z,22.97
2022-08-26T03:55:32.840Z,22.97
2022-08-26T03:58:05.505Z,22.99
2022-08-26T04:00:37.606Z,23.00
2022-08-26T04:03:14.729Z,23.01
2022-08-26T04:05:54.453Z,23.00
2022-08-26T04:08:26.668Z,22.97
2022-08-26T04:11:01.359Z,22.93
2022-08-26T04:13:33.810Z,22.89
2022-08-26T04:16:06.643Z,22.86
2022-08-26T04:18:44.471Z,22.84
2022-08-26T04:21:19.277Z,22.83
2022-08-26T04:23:53.353Z,22.81
2022-08-26T04:26:26.273Z,22.78
2022-08-26T04:28:58.458Z,22.80
2022-08-26T04:31:31.782Z,22.80
2022-08-26T04:34:04.689Z,22.79
2022-08-26T04:36:38.179Z,22.76
2022-08-26T04:39:12.230Z,22.74
2022-08-26T04:41:44.748Z,22.73
2022-08-26T04:44:17.517Z,22.73
2022-08-26T04:46:49.839Z,22.76
2022-08-26T04:49:22.143Z,22.79
2022-08-26T04:51:54.492Z,22.83
2022-08-26T04:54:27.445Z,22.86
2022-08-26T04:57:00.660Z,22.88
2022-08-26T04:59:38.470Z,22.92
2022-08-26T05:02:11.958Z,22.97
2022-08-26T05:04:44.171Z,23.02
2022-08-26T05:07:17.695Z,23.09
2022-08-26T05:09:49.879Z,23.16
2022-08-26T05:12:22.124Z,23.23
2022-08-26T05:14:54.322Z,23.28
2022-08-26T05:17:27.327Z,23.32
2022-08-26T05:19:59.501Z,23.34
2022-08-26T05:22:31.773Z,23.44
2022-08-26T05:25:04.377Z,23.51
2022-08-26T05:27:36.764Z,23.60
2022-08-26T05:30:11.404Z,23.69
2022-08-26T05:32:43.905Z,23.77
2022-08-26T05:35:16.348Z,23.87
2022-08-26T05:37:49.283Z,23.95
2022-08-26T05:40:21.723Z,24.03
2022-08-26T05:42:54.168Z,24.12
2022-08-26T05:45:29.446Z,24.22
2022-08-26T05:48:01.661Z,24.32
2022-08-26T05:50:37.178Z,24.43
2022-08-26T05:53:12.609Z,24.52
2022-08-26T05:55:47.396Z,24.60
2022-08-26T05:58:21.157Z,24.69
2022-08-26T06:01:02.977Z,24.80
2022-08-26T06:03:39.488Z,24.90
2022-08-26T06:06:11.748Z,25.00
2022-08-26T06:08:44.538Z,25.13
2022-08-26T06:11:19.165Z,25.27
2022-08-26T06:13:53.506Z,25.43
2022-08-26T06:16:26.618Z,25.59
2022-08-26T06:18:58.776Z,25.76
2022-08-26T06:21:35.044Z,25.94
2022-08-26T06:24:28.038Z,26.13
2022-08-26T06:27:02.510Z,26.34
2022-08-26T06:29:36.250Z,26.56
2022-08-26T06:32:10.933Z,26.77
2022-08-26T06:34:43.166Z,26.99
2022-08-26T06:37:15.409Z,27.18
2022-08-26T06:39:48.103Z,27.40
2022-08-26T06:42:23.691Z,27.65
2022-08-26T06:44:55.962Z,27.90
2022-08-26T06:47:29.386Z,28.16
2022-08-26T06:50:01.768Z,28.45
2022-08-26T06:52:33.897Z,28.74
2022-08-26T06:55:07.801Z,29.01
2022-08-26T06:57:41.243Z,29.28
2022-08-26T07:00:16.527Z,29.59
2022-08-26T07:02:52.516Z,29.90
2022-08-26T07:05:25.853Z,30.21
2022-08-26T07:07:58.191Z,30.52
2022-08-26T07:10:30.466Z,30.82
2022-08-26T07:13:02.647Z,31.10
2022-08-26T07:15:35.917Z,31.29
2022-08-26T07:18:09.266Z,31.52
2022-08-26T07:20:43.514Z,31.74
2022-08-26T07:23:15.847Z,31.97
2022-08-26T07:25:49.583Z,32.21
2022-08-26T07:28:22.604Z,32.41
2022-08-26T07:30:55.195Z,32.61
2022-08-26T07:33:27.380Z,32.75
2022-08-26T07:35:59.522Z,32.93
2022-08-26T07:38:33.955Z,33.12
2022-08-26T07:41:06.892Z,33.27
2022-08-26T07:43:41.324Z,33.38
2022-08-26T07:46:18.629Z,33.51
2022-08-26T07:48:59.778Z,33.64
2022-08-26T07:51:31.976Z,33.82
2022-08-26T07:54:04.242Z,33.99
2022-08-26T07:56:36.534Z,34.16
2022-08-26T07:59:13.997Z,34.34
2022-08-26T08:01:47.405Z,34.49
2022-08-26T08:04:26.047Z,34.67
2022-08-26T08:06:58.886Z,34.85
2022-08-26T08:09:31.185Z,35.01
2022-08-26T08:12:03.414Z,35.18
2022-08-26T08:14:37.501Z,35.41
2022-08-26T08:17:09.807Z,35.55
2022-08-26T08:19:42.161Z,35.70
2022-08-26T08:22:17.488Z,35.72
2022-08-26T08:24:53.008Z,35.77
2022-08-26T08:27:25.974Z,35.84
2022-08-26T08:29:58.275Z,36.01
2022-08-26T08:32:31.117Z,36.17
2022-08-26T08:35:11.045Z,36.19
2022-08-26T08:37:45.007Z,36.21
2022-08-26T08:40:18.913Z,36.31
2022-08-26T08:42:57.884Z,36.41
2022-08-26T08:45:37.358Z,36.49
2022-08-26T08:48:16.643Z,36.59
2022-08-26T08:50:50.755Z,36.79
2022-08-26T08:53:31.764Z,36.98
2022-08-26T08:56:13.535Z,37.05
2022-08-26T08:58:57.339Z,37.17
2022-08-26T09:01:39.568Z,37.19
2022-08-26T09:04:41.378Z,37.21
2022-08-26T09:07:19.084Z,37.22
2022-08-26T09:09:55.813Z,37.25
2022-08-26T09:12:32.329Z,37.34
2022-08-26T09:15:09.052Z,37.53
2022-08-26T09:17:52.282Z,37.79
2022-08-26T09:20:36.249Z,38.00
2022-08-26T09:23:10.597Z,37.91
2022-08-26T09:25:51.894Z,38.06
2022-08-26T09:28:26.544Z,38.23
2022-08-26T09:31:14.275Z,38.27
2022-08-26T09:33:47.054Z,38.37
2022-08-26T09:36:26.430Z,38.45
2022-08-26T09:38:58.845Z,38.48
2022-08-26T09:41:33.924Z,38.40
2022-08-26T09:44:16.545Z,38.21
2022-08-26T09:46:55.595Z,37.99
2022-08-26T09:49:36.389Z,37.84
2022-08-26T09:52:17.136Z,37.89
2022-08-26T09:55:02.476Z,38.09
2022-08-26T09:57:37.320Z,38.29
2022-08-26T10:00:27.253Z,38.40
2022-08-26T10:03:00.901Z,38.53
2022-08-26T10:05:38.484Z,38.62
2022-08-26T10:08:33.111Z,38.61
2022-08-26T10:11:17.002Z,38.57
2022-08-26T10:13:55.846Z,38.43
2022-08-26T10:16:33.334Z,38.44
2022-08-26T10:19:13.452Z,38.52
2022-08-26T10:21:55.252Z,38.56
2022-08-26T10:24:32.924Z,38.68
2022-08-26T10:27:12.324Z,38.75
2022-08-26T10:29:48.249Z,38.57
2022-08-26T10:32:26.743Z,38.56
2022-08-26T10:35:00.242Z,38.63
2022-08-26T10:37:37.686Z,38.64
2022-08-26T10:40:15.863Z,38.53
2022-08-26T10:42:52.956Z,38.56
2022-08-26T10:45:29.723Z,38.60
2022-08-26T10:48:06.311Z,38.46
2022-08-26T10:50:41.857Z,38.38
2022-08-26T10:53:19.154Z,38.24
2022-08-26T10:56:06.596Z,38.16
2022-08-26T10:59:03.213Z,38.00
2022-08-26T11:01:50.786Z,37.79
2022-08-26T11:04:48.544Z,37.43
2022-08-26T11:07:39.283Z,37.17
2022-08-26T11:10:34.315Z,36.98
2022-08-26T11:13:08.304Z,36.66
2022-08-26T11:16:11.802Z,36.46
2022-08-26T11:18:47.112Z,36.28
2022-08-26T11:22:07.148Z,35.97
2022-08-26T11:25:00.610Z,35.84
2022-08-26T11:28:05.377Z,35.79
2022-08-26T11:30:56.850Z,35.70
2022-08-26T11:34:00.262Z,35.55
2022-08-26T11:37:04.089Z,35.45
2022-08-26T11:39:54.080Z,35.35
2022-08-26T11:42:37.081Z,35.23
2022-08-26T11:45:29.550Z,35.15
2022-08-26T11:48:15.241Z,35.05
2022-08-26T11:50:57.878Z,35.02
2022-08-26T11:53:32.680Z,34.92
2022-08-26T11:56:10.431Z,34.83
2022-08-26T11:58:46.730Z,34.78
2022-08-26T12:01:31.345Z,34.69
2022-08-26T12:04:04.945Z,34.64
2022-08-26T12:06:45.091Z,34.61
2022-08-26T12:09:24.847Z,34.58
2022-08-26T12:12:13.353Z,34.58
2022-08-26T12:14:46.759Z,34.58
2022-08-26T12:17:27.180Z,34.52
2022-08-26T12:19:59.317Z,34.42
2022-08-26T12:22:34.624Z,34.38
2022-08-26T12:25:11.430Z,34.41
2022-08-26T12:27:45.455Z,34.38
2022-08-26T12:30:22.535Z,34.36
2022-08-26T12:33:22.336Z,34.33
2022-08-26T12:35:57.064Z,34.32
2022-08-26T12:38:31.090Z,34.33
2022-08-26T12:41:03.574Z,34.24
2022-08-26T12:43:46.634Z,34.15
2022-08-26T12:46:26.999Z,34.12
2022-08-26T12:49:01.439Z,34.12
2022-08-26T12:51:42.004Z,34.07
2022-08-26T12:54:17.972Z,34.05
2022-08-26T12:56:50.158Z,34.02
2022-08-26T12:59:26.542Z,33.97
2022-08-26T13:01:58.777Z,33.97
2022-08-26T13:04:41.170Z,33.96
2022-08-26T13:07:21.960Z,33.92
2022-08-26T13:09:56.134Z,33.91
2022-08-26T13:12:33.728Z,33.92
2022-08-26T13:15:08.693Z,33.92
2022-08-26T13:17:41.373Z,33.85
2022-08-26T13:20:13.858Z,33.77
2022-08-26T13:22:46.055Z,33.71
2022-08-26T13:25:26.144Z,33.68
2022-08-26T13:27:58.477Z,33.66
2022-08-26T13:30:30.724Z,33.63
2022-08-26T13:33:04.094Z,33.62
2022-08-26T13:35:36.238Z,33.61
2022-08-26T13:38:33.349Z,33.58
2022-08-26T13:41:06.686Z,33.53
2022-08-26T13:43:38.856Z,33.53
2022-08-26T13:46:11.132Z,33.51
2022-08-26T13:48:43.370Z,33.50
2022-08-26T13:51:18.781Z,33.44
2022-08-26T13:53:50.969Z,33.40
2022-08-26T13:56:23.232Z,33.27
2022-08-26T13:58:55.406Z,33.19
2022-08-26T14:01:29.364Z,33.18
2022-08-26T14:04:02.759Z,33.20
2022-08-26T14:06:34.956Z,33.20
2022-08-26T14:09:07.389Z,33.16
2022-08-26T14:11:54.647Z,33.11
2022-08-26T14:14:27.409Z,33.11
2022-08-26T14:17:00.528Z,33.09
2022-08-26T14:19:34.320Z,33.11
2022-08-26T14:22:07.068Z,33.10
2022-08-26T14:24:39.294Z,33.10
2022-08-26T14:27:11.549Z,33.09
2022-08-26T14:29:44.136Z,33.08
2022-08-26T14:32:23.525Z,33.10
2022-08-26T14:34:55.996Z,33.08
2022-08-26T14:37:28.483Z,33.00
2022-08-26T14:40:00.705Z,32.95
2022-08-26T14:42:34.672Z,32.87
2022-08-26T14:45:11.558Z,32.75
2022-08-26T14:47:43.745Z,32.72
2022-08-26T14:50:17.638Z,32.74
2022-08-26T14:53:07.626Z,32.77
2022-08-26T14:55:43.460Z,32.78
2022-08-26T14:58:15.710Z,32.78
2022-08-26T15:00:47.891Z,32.81
2022-08-26T15:03:20.014Z,32.82
2022-08-26T15:05:52.240Z,32.82
2022-08-26T15:08:24.418Z,32.80
2022-08-26T15:10:56.574Z,32.74
2022-08-26T15:13:28.754Z,32.75
2022-08-26T15:16:00.995Z,32.74
2022-08-26T15:18:33.232Z,32.76
2022-08-26T15:21:07.998Z,32.75
2022-08-26T15:23:40.569Z,32.71
2022-08-26T15:26:13.795Z,32.69
2022-08-26T15:28:46.199Z,32.63
2022-08-26T15:31:20.252Z,32.59
2022-08-26T15:33:52.726Z,32.59
2022-08-26T15:36:24.909Z,32.58
2022-08-26T15:38:57.800Z,32.59
2022-08-26T15:41:30.975Z,32.58
2022-08-26T15:44:09.328Z,32.57
2022-08-26T15:46:42.218Z,32.55
2022-08-26T15:49:18.348Z,32.55
2022-08-26T15:51:51.582Z,32.56
2022-08-26T15:54:25.427Z,32.52
2022-08-26T15:56:59.490Z,32.47
2022-08-26T15:59:32.281Z,32.45
2022-08-26T16:02:05.386Z,32.43
2022-08-26T16:04:38.151Z,32.40
2022-08-26T16:07:10.341Z,32.36
2022-08-26T16:09:42.531Z,32.33
2022-08-26T16:14:54.066Z,32.26
2022-08-26T16:17:26.283Z,32.23
2022-08-26T16:19:59.190Z,32.21
2022-08-26T16:22:31.414Z,32.15
2022-08-26T16:25:07.545Z,32.14
2022-08-26T16:27:39.750Z,32.10
2022-08-26T16:30:16.280Z,32.05
2022-08-26T16:32:49.031Z,32.00
2022-08-26T16:35:21.419Z,31.95
2022-08-26T16:37:56.350Z,31.89
2022-08-26T16:40:26.926Z,31.84
2022-08-26T16:42:59.162Z,31.79
2022-08-26T16:45:31.430Z,31.78
2022-08-26T16:48:04.015Z,31.74
2022-08-26T16:50:36.968Z,31.68
2022-08-26T16:53:16.140Z,31.65
2022-08-26T16:55:50.656Z,31.62
2022-08-26T16:58:22.874Z,31.58
2022-08-26T17:00:55.084Z,31.52
2022-08-26T17:03:27.663Z,31.48
2022-08-26T17:06:00.243Z,31.42
2022-08-26T17:08:32.502Z,31.37
2022-08-26T17:11:04.828Z,31.33
2022-08-26T17:13:39.198Z,31.30
2022-08-26T17:16:14.234Z,31.27
2022-08-26T17:18:44.803Z,31.22
2022-08-26T17:21:16.952Z,31.16
2022-08-26T17:23:49.350Z,31.11
2022-08-26T17:26:21.782Z,31.08
2022-08-26T17:28:54.153Z,31.03
2022-08-26T17:31:27.410Z,30.98
2022-08-26T17:33:59.612Z,30.95
2022-08-26T17:36:31.954Z,30.91
2022-08-26T17:39:04.152Z,30.87
2022-08-26T17:41:36.401Z,30.84
2022-08-26T17:44:08.975Z,30.77
2022-08-26T17:46:41.218Z,30.73
2022-08-26T17:49:13.495Z,30.69
2022-08-26T17:51:45.667Z,30.66
2022-08-26T17:54:18.525Z,30.62
2022-08-26T17:56:50.712Z,30.58
2022-08-26T17:59:22.907Z,30.54
2022-08-26T18:02:02.029Z,30.50
2022-08-26T18:04:34.244Z,30.46
2022-08-26T18:07:06.442Z,30.42
2022-08-26T18:09:38.668Z,30.36
2022-08-26T18:12:11.809Z,30.30
2022-08-26T18:14:44.097Z,30.26
2022-08-26T18:17:19.328Z,30.20
2022-08-26T18:19:51.766Z,30.09
2022-08-26T18:22:24.083Z,30.01
2022-08-26T18:24:58.947Z,29.92
2022-08-26T18:27:31.802Z,29.82
2022-08-26T18:30:04.009Z,29.74
2022-08-26T18:32:36.553Z,29.66
2022-08-26T18:35:10.748Z,29.60
2022-08-26T18:37:44.589Z,29.53
2022-08-26T18:40:18.761Z,29.48
2022-08-26T18:42:54.179Z,29.41
2022-08-26T18:45:26.607Z,29.34
2022-08-26T18:47:58.765Z,29.25
2022-08-26T18:50:31.081Z,29.24
2022-08-26T18:53:03.993Z,29.18
2022-08-26T18:55:36.147Z,29.10
2022-08-26T18:58:08.511Z,29.03
2022-08-26T19:00:43.063Z,28.98
2022-08-26T19:03:17.314Z,28.95
2022-08-26T19:05:51.231Z,28.91
2022-08-26T19:08:23.603Z,28.87
2022-08-26T19:10:55.792Z,28.84
2022-08-26T19:13:28.040Z,28.79
2022-08-26T19:16:00.176Z,28.76
2022-08-26T19:18:32.559Z,28.71
2022-08-26T19:21:07.336Z,28.64
2022-08-26T19:23:39.582Z,28.58
2022-08-26T19:26:12.571Z,28.54
2022-08-26T19:28:45.047Z,28.50
2022-08-26T19:31:17.310Z,28.46
2022-08-26T19:33:49.582Z,28.41
2022-08-26T19:36:24.950Z,28.35
2022-08-26T19:38:57.736Z,28.26
2022-08-26T19:41:37.193Z,28.19
2022-08-26T19:44:13.144Z,28.14
2022-08-26T19:46:45.323Z,28.13
2022-08-26T19:49:17.454Z,28.10
2022-08-26T19:51:49.673Z,28.05
2022-08-26T19:54:22.983Z,28.00
2022-08-26T19:56:55.192Z,27.94
2022-08-26T19:59:27.442Z,27.90
2022-08-26T20:02:01.454Z,27.88
2022-08-26T20:04:34.876Z,27.84
2022-08-26T20:07:07.499Z,27.78
2022-08-26T20:09:39.763Z,27.73
2022-08-26T20:12:12.187Z,27.68
2022-08-26T20:14:44.483Z,27.65
2022-08-26T20:17:17.295Z,27.62
2022-08-26T20:20:06.907Z,27.55
2022-08-26T20:22:59.203Z,27.51
2022-08-26T20:25:32.583Z,27.48
2022-08-26T20:28:05.228Z,27.47
2022-08-26T20:30:37.400Z,27.47
2022-08-26T20:33:09.626Z,27.46
2022-08-26T20:35:41.763Z,27.44
2022-08-26T20:38:15.857Z,27.41
2022-08-26T20:40:51.192Z,27.38
2022-08-26T20:43:26.440Z,27.35
2022-08-26T20:45:58.608Z,27.33
2022-08-26T20:48:31.157Z,27.28
2022-08-26T20:51:04.616Z,27.27
2022-08-26T20:53:36.934Z,27.23
2022-08-26T20:56:11.303Z,27.23
2022-08-26T20:58:44.844Z,27.18
2022-08-26T21:01:23.095Z,27.14
2022-08-26T21:03:55.890Z,27.08
2022-08-26T21:06:28.064Z,27.07
2022-08-26T21:09:00.639Z,27.07
2022-08-26T21:11:33.190Z,27.07
2022-08-26T21:14:06.951Z,27.08
2022-08-26T21:16:49.999Z,27.07
2022-08-26T21:19:22.452Z,27.06
2022-08-26T21:21:54.648Z,27.04
2022-08-26T21:24:26.845Z,27.03
2022-08-26T21:26:59.038Z,27.01
2022-08-26T21:29:31.300Z,26.98
2022-08-26T21:32:03.658Z,26.91
2022-08-26T21:34:36.027Z,26.86
2022-08-26T21:37:08.993Z,26.84
2022-08-26T21:39:48.961Z,26.80
2022-08-26T21:42:21.204Z,26.76
2022-08-26T21:44:54.367Z,26.73
2022-08-26T21:47:26.900Z,26.68
2022-08-26T21:49:59.384Z,26.63
2022-08-26T21:52:31.652Z,26.58
2022-08-26T21:55:08.931Z,26.52
2022-08-26T21:57:41.691Z,26.47
2022-08-26T22:00:17.078Z,26.45
2022-08-26T22:02:50.397Z,26.45
2022-08-26T22:05:22.591Z,26.46
2022-08-26T22:07:54.786Z,26.45
2022-08-26T22:10:26.944Z,26.38
2022-08-26T22:12:59.146Z,26.35
2022-08-26T22:15:33.095Z,26.33
2022-08-26T22:18:06.130Z,26.27
2022-08-26T22:20:38.667Z,26.25
2022-08-26T22:23:11.408Z,26.23
2022-08-26T22:25:43.654Z,26.14
2022-08-26T22:28:15.800Z,26.14
2022-08-26T22:30:49.748Z,26.08
2022-08-26T22:33:23.026Z,26.02
2022-08-26T22:35:55.835Z,26.01
2022-08-26T22:38:28.962Z,26.00
2022-08-26T22:41:03.423Z,25.96
2022-08-26T22:43:39.629Z,25.92
2022-08-26T22:46:16.519Z,25.91
2022-08-26T22:48:54.032Z,25.90
2022-08-26T22:51:27.987Z,25.85
2022-08-26T22:54:00.700Z,25.81
2022-08-26T22:56:32.949Z,25.81
2022-08-26T22:59:06.855Z,25.80
2022-08-26T23:01:40.991Z,25.78
2022-08-26T23:04:13.238Z,25.77
2022-08-26T23:06:47.751Z,25.76
2022-08-26T23:09:21.126Z,25.73
2022-08-26T23:11:56.091Z,25.66
2022-08-26T23:14:28.794Z,25.56
2022-08-26T23:17:01.060Z,25.51
2022-08-26T23:19:33.274Z,25.49
2022-08-26T23:22:05.752Z,25.48
2022-08-26T23:24:37.960Z,25.47
2022-08-26T23:27:10.515Z,25.46
2022-08-26T23:29:43.112Z,25.45
2022-08-26T23:32:15.334Z,25.34
2022-08-26T23:35:00.014Z,25.23
2022-08-26T23:37:36.527Z,25.13
2022-08-26T23:40:16.265Z,25.06
2022-08-26T23:42:48.506Z,25.04
2022-08-26T23:45:22.256Z,25.04
2022-08-26T23:47:55.279Z,25.05
2022-08-26T23:50:44.304Z,25.05
2022-08-26T23:53:20.017Z,25.05
2022-08-26T23:55:54.096Z,25.01
2022-08-26T23:58:26.492Z,24.95
